Time;durP1;ratioP1;P1;durP2;ratioP2;P2;SDS_P1;SDS_P2;PMS_P1;PMS_P2;Temp;Humidity;BMP_temperature;BMP_pressure;BME280_temperature;BME280_humidity;BME280_pressure;Samples;Min_cycle;Max_cycle;Signal;HPM_P1;HPM_P2
2021/10/17 00:00:54;;;;;;;48.10;14.05;;;9.90;99.90;;;;;;5032530;28;20044;-67
2021/10/17 00:03:20;;;;;;;43.28;12.60;;;9.90;99.90;;;;;;5033748;28;20034;-67
2021/10/17 00:05:45;;;;;;;49.42;14.27;;;9.90;99.90;;;;;;5141993;22;20045;-70
2021/10/17 00:08:11;;;;;;;45.15;14.25;;;9.80;99.90;;;;;;5056003;28;20025;-70
2021/10/17 00:10:37;;;;;;;52.75;13.60;;;9.90;99.90;;;;;;5056368;28;20555;-70
2021/10/17 00:13:06;;;;;;;61.97;15.48;;;9.80;99.90;;;;;;5056720;28;20017;-70
2021/10/17 00:15:33;;;;;;;44.55;13.55;;;9.80;99.90;;;;;;5056315;28;20116;-70
2021/10/17 00:17:59;;;;;;;40.60;12.90;;;9.80;99.90;;;;;;5056379;28;20029;-70
2021/10/17 00:20:25;;;;;;;53.13;15.63;;;9.80;99.90;;;;;;5055895;28;20025;-70
2021/10/17 00:22:52;;;;;;;48.65;14.10;;;9.80;99.90;;;;;;5036726;28;20079;-70
2021/10/17 00:25:19;;;;;;;42.00;14.18;;;9.80;99.90;;;;;;5038211;28;20469;-70
2021/10/17 00:27:45;;;;;;;40.67;14.40;;;9.80;99.90;;;;;;5036267;28;20017;-70
2021/10/17 00:30:12;;;;;;;56.17;13.65;;;9.70;99.90;;;;;;5052023;28;20477;-69
2021/10/17 00:32:38;;;;;;;43.80;14.18;;;9.80;99.90;;;;;;5055887;28;20033;-70
2021/10/17 00:35:06;;;;;;;40.70;14.32;;;9.80;99.90;;;;;;5056107;28;20059;-69
2021/10/17 00:37:32;;;;;;;43.60;14.63;;;9.80;99.90;;;;;;5055930;28;20036;-69
2021/10/17 00:39:59;;;;;;;42.58;15.10;;;9.90;99.90;;;;;;5055667;28;20036;-69
2021/10/17 00:42:24;;;;;;;42.63;13.27;;;9.80;99.90;;;;;;5055740;28;20073;-69
2021/10/17 00:44:58;;;;;;;55.53;15.75;;;9.90;99.90;;;;;;5055677;28;20109;-69
2021/10/17 00:47:24;;;;;;;;;;;9.90;99.90;;;;;;5056265;28;20027;-70
2021/10/17 00:49:50;;;;;;;52.80;15.07;;;9.80;99.90;;;;;;5055595;28;19905;-69
2021/10/17 00:52:16;;;;;;;70.78;15.40;;;9.80;99.90;;;;;;5056001;28;20401;-70
2021/10/17 00:54:42;;;;;;;35.30;13.48;;;9.80;99.90;;;;;;5055009;28;20029;-70
2021/10/17 00:57:08;;;;;;;56.17;16.65;;;9.80;99.90;;;;;;5055632;28;20080;-70
2021/10/17 00:59:33;;;;;;;41.85;14.93;;;9.80;99.90;;;;;;5055506;28;20049;-70
2021/10/17 01:01:59;;;;;;;47.95;14.15;;;9.90;99.90;;;;;;5055279;28;20484;-70
2021/10/17 01:04:24;;;;;;;54.72;14.38;;;9.90;99.90;;;;;;5055298;28;20032;-69
2021/10/17 01:06:51;;;;;;;43.78;13.80;;;9.90;99.90;;;;;;5054856;28;20391;-69
2021/10/17 01:09:16;;;;;;;38.13;13.63;;;9.90;99.90;;;;;;5055349;28;20021;-70
2021/10/17 01:11:47;;;;;;;27.65;9.43;;;10.00;99.90;;;;;;5055637;28;20029;-70
2021/10/17 01:14:20;;;;;;;23.17;5.45;;;10.00;99.90;;;;;;5052802;28;20033;-69
2021/10/17 01:16:47;;;;;;;15.48;3.95;;;9.90;99.90;;;;;;5035643;28;20428;-69
2021/10/17 01:19:12;;;;;;;23.45;3.92;;;9.80;99.90;;;;;;5035511;28;20083;-69
2021/10/17 01:21:39;;;;;;;18.92;3.95;;;9.80;99.90;;;;;;5052141;28;20033;-69
2021/10/17 01:24:06;;;;;;;7.97;3.13;;;9.70;99.90;;;;;;5055066;28;20021;-69
2021/10/17 01:26:33;;;;;;;10.45;3.25;;;9.70;99.90;;;;;;5055045;28;20095;-69
2021/10/17 01:28:59;;;;;;;16.60;4.05;;;9.60;99.90;;;;;;5055079;28;20024;-70
2021/10/17 01:31:39;;;;;;;15.35;4.45;;;9.60;99.90;;;;;;5054973;28;20033;-69
2021/10/17 01:34:06;;;;;;;15.60;4.55;;;9.60;99.90;;;;;;5054339;28;20480;-70
2021/10/17 01:36:37;;;;;;;19.15;5.18;;;9.60;99.90;;;;;;5054670;28;20035;-69
2021/10/17 01:39:08;;;;;;;17.55;4.65;;;9.60;99.90;;;;;;5054891;28;20029;-70
2021/10/17 01:41:34;;;;;;;15.05;4.65;;;9.60;99.90;;;;;;5055071;28;20502;-70
2021/10/17 01:44:05;;;;;;;10.57;5.10;;;9.60;99.90;;;;;;5054694;28;20037;-70
2021/10/17 01:46:30;;;;;;;15.25;5.05;;;9.60;99.90;;;;;;5054368;28;20044;-70
2021/10/17 01:48:56;;;;;;;8.00;4.25;;;9.50;99.90;;;;;;5054958;28;20484;-70
2021/10/17 01:51:22;;;;;;;11.65;4.88;;;9.50;99.90;;;;;;5054629;28;20044;-70
2021/10/17 01:53:47;;;;;;;11.82;4.45;;;9.40;99.90;;;;;;5054496;28;20484;-70
2021/10/17 01:56:13;;;;;;;14.73;5.03;;;9.40;99.90;;;;;;5054026;28;20028;-70
2021/10/17 01:58:39;;;;;;;11.68;5.05;;;9.40;99.90;;;;;;5054474;28;20086;-70
2021/10/17 02:01:05;;;;;;;14.00;5.82;;;9.40;99.90;;;;;;5054365;28;20025;-70
2021/10/17 02:03:31;;;;;;;15.77;5.13;;;9.30;99.90;;;;;;5054618;28;20082;-70
2021/10/17 02:05:56;;;;;;;6.60;4.80;;;9.20;99.90;;;;;;5053677;28;20041;-70
2021/10/17 02:08:22;;;;;;;22.60;5.68;;;9.20;99.90;;;;;;5054280;28;20484;-70
2021/10/17 02:10:47;;;;;;;13.40;5.78;;;9.20;99.90;;;;;;5054506;28;20024;-70
2021/10/17 02:13:14;;;;;;;14.65;5.70;;;9.20;99.90;;;;;;5052931;28;20029;-70
2021/10/17 02:15:40;;;;;;;18.27;5.65;;;9.10;99.90;;;;;;5054131;28;20021;-70
2021/10/17 02:18:05;;;;;;;8.38;5.10;;;9.10;99.90;;;;;;5054102;28;20055;-70
2021/10/17 02:20:34;;;;;;;15.10;5.15;;;9.10;99.90;;;;;;5053437;28;20059;-70
2021/10/17 02:23:01;;;;;;;14.13;5.70;;;9.00;99.90;;;;;;5054267;28;20059;-70
2021/10/17 02:25:27;;;;;;;9.90;4.28;;;9.00;99.90;;;;;;5053648;28;20025;-70
2021/10/17 02:27:52;;;;;;;13.70;4.97;;;8.90;99.90;;;;;;5053962;28;20024;-70
2021/10/17 02:30:18;;;;;;;11.30;4.55;;;8.90;99.90;;;;;;5052738;28;20404;-70
2021/10/17 02:32:43;;;;;;;10.95;4.97;;;8.90;99.90;;;;;;5053968;28;20060;-70
2021/10/17 02:35:09;;;;;;;11.30;4.95;;;8.80;99.90;;;;;;5051882;28;20032;-70
2021/10/17 02:37:35;;;;;;;8.93;4.72;;;8.80;99.90;;;;;;5053770;28;20025;-70
2021/10/17 02:40:00;;;;;;;15.27;5.07;;;8.80;99.90;;;;;;5053956;28;20025;-70
2021/10/17 02:42:26;;;;;;;16.02;4.90;;;8.60;99.90;;;;;;5053609;28;20029;-70
2021/10/17 02:44:52;;;;;;;14.27;5.43;;;8.60;99.90;;;;;;5053606;28;20013;-70
2021/10/17 02:47:17;;;;;;;13.93;4.68;;;8.50;99.90;;;;;;5053021;28;20025;-70
2021/10/17 02:49:43;;;;;;;10.95;4.95;;;8.40;99.90;;;;;;5053815;28;20020;-70
2021/10/17 02:52:09;;;;;;;13.23;5.40;;;8.40;99.90;;;;;;5053756;28;20036;-70
2021/10/17 02:54:35;;;;;;;12.13;5.60;;;8.40;99.90;;;;;;5052827;28;20445;-69
2021/10/17 02:57:00;;;;;;;14.27;5.00;;;8.50;99.90;;;;;;5053425;28;20033;-70
2021/10/17 02:59:26;;;;;;;12.70;5.65;;;8.50;99.90;;;;;;5053431;28;20103;-70
2021/10/17 03:01:52;;;;;;;10.30;5.07;;;8.60;99.90;;;;;;5052028;28;20400;-70
2021/10/17 03:04:17;;;;;;;15.10;5.38;;;8.60;99.90;;;;;;5052707;28;20055;-70
2021/10/17 03:06:43;;;;;;;10.98;5.15;;;8.60;99.90;;;;;;5051386;28;20560;-69
2021/10/17 03:09:08;;;;;;;10.88;6.22;;;8.70;99.90;;;;;;5053135;28;20074;-70
2021/10/17 03:11:35;;;;;;;14.93;6.07;;;8.70;99.90;;;;;;5053044;28;20104;-70
2021/10/17 03:14:01;;;;;;;10.90;5.88;;;8.70;99.90;;;;;;5050301;28;20025;-69
2021/10/17 03:16:26;;;;;;;10.02;5.85;;;8.70;99.90;;;;;;5053228;28;20037;-70
2021/10/17 03:18:52;;;;;;;25.48;6.93;;;8.70;99.90;;;;;;5051198;28;20026;-70
2021/10/17 03:21:18;;;;;;;12.00;5.72;;;8.60;99.90;;;;;;5053092;28;20360;-70
2021/10/17 03:23:43;;;;;;;11.95;5.93;;;8.60;99.90;;;;;;5053268;28;20021;-70
2021/10/17 03:26:09;;;;;;;9.43;5.13;;;8.50;99.90;;;;;;5052447;28;20038;-69
2021/10/17 03:28:35;;;;;;;13.88;5.57;;;8.50;99.90;;;;;;5063121;28;20026;-70
2021/10/17 03:31:05;;;;;;;7.43;5.18;;;8.50;99.90;;;;;;5045207;28;20400;-70
2021/10/17 03:33:30;;;;;;;10.55;5.40;;;8.50;99.90;;;;;;5053300;28;20104;-69
2021/10/17 03:35:56;;;;;;;16.90;6.03;;;8.50;99.90;;;;;;5052659;28;20029;-70
2021/10/17 03:38:21;;;;;;;8.73;6.30;;;8.50;99.90;;;;;;5055843;28;20029;-70
2021/10/17 03:40:47;;;;;;;8.13;5.70;;;8.50;99.90;;;;;;5054208;28;20037;-69
2021/10/17 03:43:12;;;;;;;12.02;5.85;;;8.50;99.90;;;;;;5059480;28;20028;-69
2021/10/17 03:45:39;;;;;;;6.45;5.25;;;8.50;99.90;;;;;;5056911;28;20017;-70
2021/10/17 03:48:05;;;;;;;8.98;5.95;;;8.50;99.90;;;;;;5055874;28;20023;-69
2021/10/17 03:50:31;;;;;;;16.30;5.60;;;8.50;99.90;;;;;;5052603;28;20076;-70
2021/10/17 03:52:56;;;;;;;9.48;4.82;;;8.50;99.90;;;;;;5036979;28;20493;-70
2021/10/17 03:55:22;;;;;;;8.60;5.40;;;8.50;99.90;;;;;;5036216;28;20029;-69
2021/10/17 03:57:47;;;;;;;9.07;4.88;;;8.50;99.90;;;;;;5036823;28;20025;-69
2021/10/17 04:00:13;;;;;;;11.95;5.63;;;8.50;99.90;;;;;;5049227;28;20021;-70
2021/10/17 04:02:38;;;;;;;9.25;4.93;;;8.50;99.90;;;;;;5072078;28;20395;-70
2021/10/17 04:05:04;;;;;;;14.73;4.68;;;8.50;99.90;;;;;;5055686;28;20033;-69
2021/10/17 04:07:30;;;;;;;10.18;5.35;;;8.50;99.90;;;;;;5071874;28;20105;-70
2021/10/17 04:09:55;;;;;;;12.10;5.22;;;8.50;99.90;;;;;;5056831;28;20052;-70
2021/10/17 04:12:21;;;;;;;12.57;5.85;;;8.50;99.90;;;;;;5056968;28;20075;-70
2021/10/17 04:14:46;;;;;;;11.82;5.93;;;8.50;99.90;;;;;;5055641;28;20036;-69
2021/10/17 04:17:12;;;;;;;16.85;5.95;;;8.50;99.90;;;;;;5056707;28;20435;-70
2021/10/17 04:19:37;;;;;;;14.80;7.28;;;8.50;99.90;;;;;;5054747;28;20056;-70
2021/10/17 04:22:03;;;;;;;15.02;6.35;;;8.50;99.90;;;;;;5055734;28;20029;-69
2021/10/17 04:24:29;;;;;;;15.27;7.93;;;8.50;99.90;;;;;;5045999;28;20079;-70
2021/10/17 04:26:54;;;;;;;12.80;7.15;;;8.50;99.90;;;;;;5036133;28;20473;-70
2021/10/17 04:29:20;;;;;;;10.27;6.03;;;8.50;99.90;;;;;;5038743;28;20468;-69
2021/10/17 04:31:45;;;;;;;11.88;6.78;;;8.50;99.90;;;;;;5040387;28;20029;-69
2021/10/17 04:34:11;;;;;;;14.68;6.18;;;8.50;99.90;;;;;;5035503;28;20032;-69
2021/10/17 04:36:36;;;;;;;12.13;6.53;;;8.50;99.90;;;;;;5038311;28;20033;-69
2021/10/17 04:39:05;;;;;;;13.98;7.63;;;8.50;99.90;;;;;;5037154;28;20044;-69
2021/10/17 04:41:32;;;;;;;8.25;6.13;;;8.50;99.90;;;;;;5035413;28;20029;-69
2021/10/17 04:43:58;;;;;;;21.10;6.20;;;8.60;99.90;;;;;;5038011;28;20021;-69
2021/10/17 04:46:23;;;;;;;10.85;6.20;;;8.60;99.90;;;;;;5055249;28;20116;-69
2021/10/17 04:48:49;;;;;;;9.90;5.50;;;8.60;99.90;;;;;;5055060;28;20021;-69
2021/10/17 04:51:14;;;;;;;13.07;6.53;;;8.60;99.90;;;;;;5055746;28;20036;-70
2021/10/17 04:53:40;;;;;;;12.00;7.63;;;8.60;99.90;;;;;;5055069;28;20032;-69
2021/10/17 04:56:05;;;;;;;14.70;6.90;;;8.60;99.90;;;;;;5055972;28;20044;-69
2021/10/17 04:58:31;;;;;;;13.02;6.53;;;8.60;99.90;;;;;;5057753;28;20382;-69
2021/10/17 05:00:57;;;;;;;10.65;7.18;;;8.60;99.90;;;;;;5040604;28;20074;-69
2021/10/17 05:03:23;;;;;;;15.63;6.88;;;8.60;99.90;;;;;;5055051;28;20061;-69
2021/10/17 05:05:49;;;;;;;13.52;6.40;;;8.70;99.90;;;;;;5055288;28;20075;-69
2021/10/17 05:08:15;;;;;;;13.65;6.95;;;8.60;99.90;;;;;;5070101;28;20431;-70
2021/10/17 05:10:41;;;;;;;19.58;6.97;;;8.70;99.90;;;;;;5055201;28;20476;-70
2021/10/17 05:13:07;;;;;;;14.45;5.82;;;8.70;99.90;;;;;;5055572;28;20360;-69
2021/10/17 05:15:32;;;;;;;17.45;6.65;;;8.60;99.90;;;;;;5053594;28;20032;-70
2021/10/17 05:17:58;;;;;;;9.38;5.75;;;8.70;99.90;;;;;;5054720;28;20480;-70
2021/10/17 05:20:23;;;;;;;11.73;6.22;;;8.70;99.90;;;;;;5055202;28;20029;-70
2021/10/17 05:22:49;;;;;;;11.02;6.63;;;8.70;99.90;;;;;;5055143;28;20032;-70
2021/10/17 05:25:15;;;;;;;17.33;6.13;;;8.70;99.90;;;;;;5054970;28;20021;-70
2021/10/17 05:27:41;;;;;;;12.10;5.38;;;8.70;99.90;;;;;;5054882;28;20074;-70
2021/10/17 05:30:07;;;;;;;11.00;6.07;;;8.70;99.90;;;;;;5054167;28;20028;-69
2021/10/17 05:32:33;;;;;;;15.90;6.60;;;8.70;99.90;;;;;;5054763;28;20020;-70
2021/10/17 05:34:59;;;;;;;11.55;5.63;;;8.70;99.90;;;;;;5055040;28;20025;-70
2021/10/17 05:37:24;;;;;;;10.45;5.75;;;8.80;99.90;;;;;;5054130;28;20056;-70
2021/10/17 05:39:50;;;;;;;10.63;4.93;;;8.80;99.90;;;;;;5055144;28;20029;-70
2021/10/17 05:42:15;;;;;;;10.23;5.72;;;8.80;99.90;;;;;;5054658;28;20072;-70
2021/10/17 05:44:41;;;;;;;10.90;5.68;;;8.80;99.90;;;;;;5054704;28;20064;-70
2021/10/17 05:47:06;;;;;;;14.00;6.55;;;8.80;99.90;;;;;;5045957;28;20041;-70
2021/10/17 05:49:32;;;;;;;10.45;5.65;;;8.80;99.90;;;;;;5034234;28;20022;-70
2021/10/17 05:51:57;;;;;;;7.55;5.43;;;8.80;99.90;;;;;;5040457;28;20028;-70
2021/10/17 05:54:23;;;;;;;8.35;5.38;;;8.80;99.90;;;;;;5054625;28;20048;-70
2021/10/17 05:56:48;;;;;;;8.23;5.57;;;8.90;99.90;;;;;;5054220;28;20046;-69
2021/10/17 05:59:14;;;;;;;9.75;5.25;;;8.90;99.90;;;;;;5034935;28;20084;-70
2021/10/17 06:01:39;;;;;;;8.60;5.75;;;8.90;99.90;;;;;;5052245;28;20524;-70
2021/10/17 06:04:05;;;;;;;8.10;5.28;;;8.90;99.90;;;;;;5054120;28;20104;-70
2021/10/17 06:06:31;;;;;;;11.85;6.10;;;8.90;99.90;;;;;;5061326;22;20060;-66
2021/10/17 06:08:58;;;;;;;8.32;5.55;;;8.90;99.90;;;;;;5019259;28;20030;-66
2021/10/17 06:11:24;;;;;;;7.15;5.25;;;8.90;99.90;;;;;;5014135;28;20033;-67
2021/10/17 06:13:49;;;;;;;9.88;6.55;;;8.90;99.90;;;;;;5016444;28;20022;-66
2021/10/17 06:16:15;;;;;;;10.02;5.63;;;8.90;99.90;;;;;;5015861;28;20112;-67
2021/10/17 06:18:41;;;;;;;8.05;5.43;;;8.90;99.90;;;;;;5034236;28;20080;-67
2021/10/17 06:21:07;;;;;;;15.05;5.80;;;8.90;99.90;;;;;;5034386;28;20033;-67
2021/10/17 06:23:33;;;;;;;10.63;6.15;;;8.90;99.90;;;;;;5031661;28;20018;-66
2021/10/17 06:25:59;;;;;;;8.80;5.32;;;9.00;99.90;;;;;;5033522;28;20029;-67
2021/10/17 06:28:25;;;;;;;9.20;6.10;;;9.00;99.90;;;;;;5021582;28;20084;-66
2021/10/17 06:30:51;;;;;;;9.85;5.82;;;9.00;99.90;;;;;;5021162;28;20025;-67
2021/10/17 06:33:16;;;;;;;10.15;7.15;;;9.00;99.90;;;;;;5033709;28;20105;-67
2021/10/17 06:35:42;;;;;;;11.70;6.13;;;9.00;99.90;;;;;;5033308;28;20531;-67
2021/10/17 06:38:08;;;;;;;14.80;6.35;;;9.00;99.90;;;;;;5031907;28;20057;-67
2021/10/17 06:40:34;;;;;;;12.38;6.13;;;9.10;99.90;;;;;;5034074;28;20071;-67
2021/10/17 06:42:59;;;;;;;8.18;5.72;;;9.10;99.90;;;;;;5031003;28;20037;-67
2021/10/17 06:45:25;;;;;;;10.73;5.50;;;9.10;99.90;;;;;;5033917;28;20037;-67
2021/10/17 06:47:51;;;;;;;11.35;5.78;;;9.20;99.90;;;;;;5033589;28;20535;-67
2021/10/17 06:50:20;;;;;;;9.82;5.38;;;9.20;99.90;;;;;;5033600;28;20504;-67
2021/10/17 06:52:46;;;;;;;12.25;6.35;;;9.20;99.90;;;;;;5032968;28;20048;-67
2021/10/17 06:55:12;;;;;;;14.60;6.32;;;9.20;99.90;;;;;;5033503;28;20037;-67
2021/10/17 06:57:37;;;;;;;15.60;6.78;;;9.20;99.90;;;;;;5033344;28;20400;-67
2021/10/17 07:00:04;;;;;;;9.20;5.38;;;9.20;99.90;;;;;;5033542;28;20092;-67
2021/10/17 07:02:30;;;;;;;9.02;4.88;;;9.30;99.90;;;;;;5032976;28;20033;-67
2021/10/17 07:04:55;;;;;;;8.80;5.28;;;9.30;99.90;;;;;;5033307;28;20112;-67
2021/10/17 07:07:21;;;;;;;13.52;5.25;;;9.30;99.90;;;;;;5033080;28;20061;-67
2021/10/17 07:09:46;;;;;;;12.95;5.43;;;9.40;99.90;;;;;;5033318;28;20083;-67
2021/10/17 07:12:12;;;;;;;11.82;5.85;;;9.40;99.90;;;;;;5032954;28;20029;-67
2021/10/17 07:14:37;;;;;;;14.20;6.53;;;9.50;99.90;;;;;;5030965;28;20477;-67
2021/10/17 07:17:03;;;;;;;10.50;5.65;;;9.60;99.90;;;;;;5033314;28;20025;-67
2021/10/17 07:19:29;;;;;;;10.32;5.85;;;9.70;99.90;;;;;;5019841;28;20040;-67
2021/10/17 07:21:54;;;;;;;8.00;5.65;;;9.80;99.90;;;;;;5013454;28;20068;-67
2021/10/17 07:24:21;;;;;;;7.72;4.40;;;9.80;99.90;;;;;;5020238;28;20042;-67
2021/10/17 07:26:46;;;;;;;9.68;5.18;;;9.90;99.90;;;;;;5034161;28;20104;-67
2021/10/17 07:29:12;;;;;;;10.98;5.45;;;9.90;99.90;;;;;;5032922;28;20473;-67
2021/10/17 07:31:38;;;;;;;11.30;4.90;;;10.00;99.90;;;;;;5033051;28;20032;-67
2021/10/17 07:34:03;;;;;;;7.82;5.57;;;10.00;99.90;;;;;;5032874;28;20052;-67
2021/10/17 07:36:29;;;;;;;10.57;4.65;;;10.10;99.90;;;;;;5033106;28;20038;-67
2021/10/17 07:38:54;;;;;;;11.63;5.50;;;10.10;99.90;;;;;;5030724;28;20048;-67
2021/10/17 07:41:20;;;;;;;6.78;5.28;;;10.20;99.90;;;;;;5032955;28;20034;-67
2021/10/17 07:43:46;;;;;;;13.80;6.15;;;10.20;99.90;;;;;;5031458;28;20053;-67
2021/10/17 07:46:12;;;;;;;10.13;5.40;;;10.20;99.90;;;;;;5033078;28;20034;-67
2021/10/17 07:48:40;;;;;;;13.75;7.30;;;10.30;99.90;;;;;;5014969;28;20375;-67
2021/10/17 07:51:05;;;;;;;12.00;6.00;;;10.30;99.90;;;;;;5013210;28;20034;-67
2021/10/17 07:53:31;;;;;;;11.73;6.05;;;10.30;99.90;;;;;;5028067;28;20155;-67
2021/10/17 07:55:57;;;;;;;7.60;4.55;;;10.30;99.90;;;;;;5033128;28;20022;-67
2021/10/17 07:58:23;;;;;;;11.70;4.43;;;10.30;99.90;;;;;;5023213;28;20401;-67
2021/10/17 08:00:48;;;;;;;16.40;6.82;;;10.40;99.90;;;;;;5013354;28;20026;-67
2021/10/17 08:03:14;;;;;;;11.52;4.95;;;10.40;99.90;;;;;;5016018;28;20366;-67
2021/10/17 08:05:39;;;;;;;6.68;4.10;;;10.40;99.90;;;;;;5032290;28;20484;-67
2021/10/17 08:08:05;;;;;;;14.80;6.13;;;10.50;99.90;;;;;;5030984;28;20084;-67
2021/10/17 08:10:31;;;;;;;10.80;5.50;;;10.60;99.90;;;;;;5033077;28;20488;-67
2021/10/17 08:12:56;;;;;;;14.23;5.38;;;10.60;99.90;;;;;;5028412;28;20030;-67
2021/10/17 08:15:24;;;;;;;21.25;5.75;;;10.60;99.90;;;;;;5032336;28;20029;-67
2021/10/17 08:17:50;;;;;;;16.45;6.60;;;10.70;99.90;;;;;;5032980;28;20033;-68
2021/10/17 08:20:16;;;;;;;16.63;5.80;;;10.70;99.90;;;;;;5032464;28;20025;-68
2021/10/17 08:22:42;;;;;;;13.25;6.05;;;10.80;99.90;;;;;;5032612;28;20025;-68
2021/10/17 08:25:08;;;;;;;14.27;5.05;;;10.90;99.90;;;;;;5034768;28;20021;-67
2021/10/17 08:27:34;;;;;;;10.02;4.55;;;10.80;99.90;;;;;;5036620;28;20028;-67
2021/10/17 08:30:00;;;;;;;11.70;4.10;;;10.90;99.90;;;;;;5035908;28;20030;-67
2021/10/17 08:32:25;;;;;;;11.32;4.60;;;11.00;99.90;;;;;;5041141;28;20044;-67
2021/10/17 08:34:51;;;;;;;17.58;6.47;;;11.20;99.90;;;;;;5036234;28;20523;-67
2021/10/17 08:37:17;;;;;;;8.52;4.85;;;11.20;99.90;;;;;;5036188;28;20449;-67
2021/10/17 08:39:43;;;;;;;20.98;5.20;;;11.20;99.90;;;;;;5035534;28;20025;-67
2021/10/17 08:42:08;;;;;;;12.75;5.20;;;11.10;99.90;;;;;;5035972;28;20053;-67
2021/10/17 08:44:34;;;;;;;7.15;3.40;;;11.10;99.90;;;;;;5035979;28;20104;-67
2021/10/17 08:47:00;;;;;;;11.13;4.90;;;11.10;99.90;;;;;;5035648;28;20029;-67
2021/10/17 08:49:27;;;;;;;14.20;6.20;;;11.10;99.90;;;;;;5035930;28;20536;-67
2021/10/17 08:51:53;;;;;;;10.05;5.05;;;11.10;99.90;;;;;;5035004;28;20469;-67
2021/10/17 08:54:19;;;;;;;9.13;4.25;;;11.20;99.90;;;;;;5036091;28;20025;-67
2021/10/17 08:56:44;;;;;;;16.67;5.53;;;11.30;99.90;;;;;;5035993;28;20032;-67
2021/10/17 08:59:10;;;;;;;13.15;4.72;;;11.40;99.90;;;;;;5034710;28;20057;-67
2021/10/17 09:01:38;;;;;;;7.53;3.72;;;11.30;99.90;;;;;;5035190;28;20036;-67
2021/10/17 09:04:06;;;;;;;9.48;4.32;;;11.30;99.90;;;;;;5022803;28;20022;-67
2021/10/17 09:06:37;;;;;;;12.32;4.80;;;11.30;99.90;;;;;;5015699;28;20103;-67
2021/10/17 09:09:09;;;;;;;7.10;3.97;;;11.40;99.90;;;;;;5015734;28;20022;-67
2021/10/17 09:11:46;;;;;;;11.38;3.95;;;11.30;99.90;;;;;;5016030;28;20030;-67
2021/10/17 09:14:17;;;;;;;11.07;4.38;;;11.40;99.90;;;;;;5015573;28;20424;-67
2021/10/17 09:16:46;;;;;;;11.57;4.22;;;11.40;99.90;;;;;;5015647;28;20121;-67
2021/10/17 09:19:14;;;;;;;5.93;3.67;;;11.50;99.90;;;;;;5023823;28;20043;-67
2021/10/17 09:21:55;;;;;;;12.25;4.60;;;11.50;99.90;;;;;;5035298;28;20026;-68
2021/10/17 09:24:26;;;;;;;12.05;5.07;;;11.30;99.90;;;;;;5028178;28;20397;-68
2021/10/17 09:27:13;;;;;;;8.13;4.25;;;11.40;99.90;;;;;;5015450;28;20022;-67
2021/10/17 09:29:42;;;;;;;8.98;4.30;;;11.40;99.90;;;;;;5020298;28;20538;-67
2021/10/17 09:32:17;;;;;;;10.70;4.35;;;11.40;99.90;;;;;;5033251;28;20037;-67
2021/10/17 09:35:04;;;;;;;9.02;5.00;;;11.40;99.90;;;;;;5035124;28;20396;-68
2021/10/17 09:37:39;;;;;;;11.43;4.68;;;11.40;99.90;;;;;;5030580;28;20508;-68
2021/10/17 09:40:16;;;;;;;10.07;4.32;;;11.40;99.90;;;;;;5035163;28;20032;-68
2021/10/17 09:42:42;;;;;;;9.30;4.05;;;11.40;99.90;;;;;;5032746;28;20036;-68
2021/10/17 09:45:20;;;;;;;6.75;4.78;;;11.50;99.90;;;;;;5035098;28;20029;-68
2021/10/17 09:47:45;;;;;;;5.03;4.35;;;11.50;99.90;;;;;;5034605;28;20032;-67
2021/10/17 09:50:12;;;;;;;12.60;5.10;;;11.60;99.90;;;;;;5034980;28;20018;-67
2021/10/17 09:52:38;;;;;;;6.47;4.18;;;11.70;99.90;;;;;;5034576;28;20477;-67
2021/10/17 09:55:08;;;;;;;10.77;5.38;;;11.80;99.90;;;;;;5035198;28;20025;-67
2021/10/17 09:57:37;;;;;;;11.50;5.40;;;11.80;99.90;;;;;;5029649;28;20030;-67
2021/10/17 10:00:06;;;;;;;6.25;5.28;;;11.70;99.90;;;;;;5014805;28;20022;-67
2021/10/17 10:02:31;;;;;;;12.05;5.65;;;11.70;99.90;;;;;;5015260;28;20041;-67
2021/10/17 10:04:58;;;;;;;7.90;4.35;;;11.80;99.90;;;;;;5016294;28;20018;-67
2021/10/17 10:07:25;;;;;;;7.65;5.40;;;11.80;99.90;;;;;;5017537;28;20120;-67
2021/10/17 10:09:54;;;;;;;9.98;5.07;;;11.80;99.90;;;;;;5034459;28;20082;-67
2021/10/17 10:12:20;;;;;;;7.03;4.18;;;11.80;99.90;;;;;;5034575;28;20032;-68
2021/10/17 10:14:48;;;;;;;19.02;6.05;;;11.90;99.90;;;;;;5034184;28;20026;-68
2021/10/17 10:17:15;;;;;;;8.13;5.15;;;11.90;99.90;;;;;;5033665;28;20033;-67
2021/10/17 10:19:41;;;;;;;8.93;5.20;;;12.00;99.90;;;;;;5019770;28;20044;-67
2021/10/17 10:22:07;;;;;;;8.73;4.78;;;12.00;99.90;;;;;;5014792;28;20030;-67
2021/10/17 10:24:33;;;;;;;12.10;5.78;;;11.90;99.90;;;;;;5017356;28;20038;-67
2021/10/17 10:27:00;;;;;;;8.73;4.90;;;12.00;99.90;;;;;;5014323;28;20021;-67
2021/10/17 10:29:29;;;;;;;9.00;5.03;;;11.90;99.90;;;;;;5015565;28;20040;-67
2021/10/17 10:32:00;;;;;;;6.68;4.78;;;12.00;99.90;;;;;;5031748;28;20362;-67
2021/10/17 10:34:31;;;;;;;8.45;4.63;;;12.00;99.90;;;;;;5014454;28;20091;-67
2021/10/17 10:37:11;;;;;;;9.73;5.00;;;12.00;99.90;;;;;;5015648;28;20068;-67
2021/10/17 10:39:36;;;;;;;6.78;4.20;;;12.10;99.90;;;;;;5014303;28;20077;-67
2021/10/17 10:42:15;;;;;;;7.95;4.88;;;12.00;99.90;;;;;;5014033;28;20042;-67
2021/10/17 10:44:42;;;;;;;10.85;5.15;;;11.90;99.90;;;;;;5033059;28;20100;-67
2021/10/17 10:47:25;;;;;;;8.27;4.72;;;12.00;99.90;;;;;;5033296;28;20109;-67
2021/10/17 10:49:53;;;;;;;8.10;4.35;;;12.10;99.90;;;;;;5034030;28;20483;-67
2021/10/17 10:52:34;;;;;;;6.03;4.30;;;12.10;99.90;;;;;;5024227;28;20539;-67
2021/10/17 10:55:11;;;;;;;7.30;4.43;;;12.10;99.90;;;;;;5014073;28;20036;-67
2021/10/17 10:57:42;;;;;;;10.25;4.13;;;12.20;99.90;;;;;;5015320;28;20393;-67
2021/10/17 11:00:09;;;;;;;4.57;3.53;;;12.20;99.90;;;;;;5014105;28;20028;-67
2021/10/17 11:02:36;;;;;;;8.30;4.65;;;12.20;99.90;;;;;;5016610;28;20037;-67
2021/10/17 11:05:07;;;;;;;6.38;3.42;;;12.30;99.90;;;;;;5014593;28;20034;-67
2021/10/17 11:07:36;;;;;;;7.32;3.63;;;12.30;99.90;;;;;;5019306;28;20485;-67
2021/10/17 11:10:27;;;;;;;6.63;3.40;;;12.20;99.90;;;;;;5033674;28;20033;-67
2021/10/17 11:13:03;;;;;;;4.30;3.63;;;12.10;99.90;;;;;;5033409;28;20518;-67
2021/10/17 11:15:32;;;;;;;6.60;3.00;;;12.10;99.90;;;;;;5033283;28;20109;-67
2021/10/17 11:18:09;;;;;;;5.05;3.30;;;12.10;99.90;;;;;;5032542;28;20029;-67
2021/10/17 11:20:41;;;;;;;7.72;3.63;;;12.20;99.90;;;;;;5013331;28;20080;-67
2021/10/17 11:23:19;;;;;;;7.22;3.05;;;12.20;99.90;;;;;;5013397;28;20557;-67
2021/10/17 11:26:00;;;;;;;6.88;3.60;;;12.30;99.90;;;;;;5032418;28;20400;-67
2021/10/17 11:28:28;;;;;;;9.43;3.08;;;12.40;99.90;;;;;;5032670;28;20053;-67
2021/10/17 11:31:15;;;;;;;4.55;2.90;;;12.40;99.90;;;;;;5024052;28;20362;-67
2021/10/17 11:33:43;;;;;;;3.92;2.70;;;12.40;99.90;;;;;;5018011;28;20022;-67
2021/10/17 11:36:12;;;;;;;3.70;3.03;;;12.30;99.90;;;;;;5033047;28;20083;-67
2021/10/17 11:38:39;;;;;;;5.82;2.67;;;12.40;99.90;;;;;;5032616;28;20537;-67
2021/10/17 11:41:13;;;;;;;8.93;7.13;;;12.50;99.90;;;;;;5032910;28;20108;-67
2021/10/17 11:43:45;;;;;;;11.00;9.75;;;12.50;99.90;;;;;;5033403;28;20050;-67
2021/10/17 11:46:13;;;;;;;5.55;5.03;;;12.40;99.90;;;;;;5032273;28;20022;-67
2021/10/17 11:48:42;;;;;;;15.20;11.48;;;12.40;99.90;;;;;;5033030;28;20022;-67
2021/10/17 11:51:14;;;;;;;7.53;5.28;;;12.50;99.90;;;;;;5032660;28;20080;-67
2021/10/17 11:53:40;;;;;;;7.25;4.03;;;12.40;99.90;;;;;;5032626;28;20032;-67
2021/10/17 11:56:10;;;;;;;12.00;3.55;;;12.50;99.90;;;;;;5032319;28;20029;-67
2021/10/17 11:58:38;;;;;;;7.03;3.20;;;12.60;99.90;;;;;;5034457;28;20370;-67
2021/10/17 12:01:11;;;;;;;7.30;3.72;;;12.60;99.90;;;;;;5036173;28;20032;-67
2021/10/17 12:03:38;;;;;;;4.13;2.40;;;12.70;99.90;;;;;;5017355;28;20033;-67
2021/10/17 12:06:04;;;;;;;6.63;3.03;;;12.70;99.90;;;;;;5089402;23;20084;-70
2021/10/17 12:08:34;;;;;;;12.65;6.85;;;12.80;99.90;;;;;;5056621;28;20053;-70
2021/10/17 12:11:03;;;;;;;12.77;5.32;;;12.80;99.90;;;;;;5056857;28;20028;-70
2021/10/17 12:13:43;;;;;;;5.35;2.97;;;12.80;99.90;;;;;;5055418;28;20021;-70
2021/10/17 12:16:12;;;;;;;5.60;2.70;;;12.70;99.90;;;;;;5055232;28;20393;-70
2021/10/17 12:18:43;;;;;;;4.32;2.08;;;12.70;99.90;;;;;;5056351;28;20506;-70
2021/10/17 12:21:09;;;;;;;8.25;3.97;;;12.70;99.90;;;;;;5056097;28;20029;-69
2021/10/17 12:23:36;;;;;;;5.75;3.08;;;12.60;99.90;;;;;;5056251;28;20487;-69
2021/10/17 12:26:01;;;;;;;8.23;3.33;;;12.50;99.90;;;;;;5056120;28;20040;-70
2021/10/17 12:28:27;;;;;;;5.55;3.40;;;12.50;99.90;;;;;;5056276;28;20388;-70
2021/10/17 12:30:55;;;;;;;9.65;4.57;;;12.50;99.90;;;;;;5055448;28;20057;-70
2021/10/17 12:33:30;;;;;;;7.35;4.20;;;12.50;99.90;;;;;;5056039;28;20028;-70
2021/10/17 12:35:56;;;;;;;5.63;4.72;;;12.50;99.90;;;;;;5055700;28;20017;-70
2021/10/17 12:38:28;;;;;;;4.97;4.30;;;12.50;99.90;;;;;;5055252;28;20032;-70
2021/10/17 12:41:05;;;;;;;8.05;6.50;;;12.50;99.90;;;;;;5035678;28;20100;-70
2021/10/17 12:43:30;;;;;;;5.55;4.53;;;12.50;99.90;;;;;;5036086;28;20041;-70
2021/10/17 12:46:09;;;;;;;5.63;4.82;;;12.40;99.90;;;;;;5051470;28;20021;-70